createdAt,value
2018-06-28T00:00:20.732Z,18.10
2018-06-28T00:02:48.354Z,18.00
2018-06-28T00:05:15.954Z,18.00
2018-06-28T00:07:43.522Z,18.00
2018-06-28T00:10:11.310Z,18.00
2018-06-28T00:12:39.018Z,18.00
2018-06-28T00:15:06.686Z,18.00
2018-06-28T00:17:34.574Z,17.90
2018-06-28T00:20:02.365Z,17.90
2018-06-28T00:22:30.145Z,17.90
2018-06-28T00:24:57.750Z,17.80
2018-06-28T00:29:52.816Z,17.80
2018-06-28T00:32:20.404Z,17.80
2018-06-28T00:34:48.001Z,17.80
2018-06-28T00:37:15.562Z,17.80
2018-06-28T00:39:43.137Z,17.70
2018-06-28T00:42:10.674Z,17.70
2018-06-28T00:44:38.253Z,17.70
2018-06-28T00:47:05.869Z,17.60
2018-06-28T00:49:33.484Z,17.60
2018-06-28T00:52:01.202Z,17.60
2018-06-28T00:54:28.939Z,17.60
2018-06-28T00:56:56.554Z,17.60
2018-06-28T00:59:24.152Z,17.60
2018-06-28T01:01:51.757Z,17.60
2018-06-28T01:04:19.302Z,17.60
2018-06-28T01:06:46.862Z,17.50
2018-06-28T01:09:14.466Z,17.50
2018-06-28T01:11:42.148Z,17.60
2018-06-28T01:14:09.770Z,17.50
2018-06-28T01:16:37.810Z,17.50
2018-06-28T01:19:06.124Z,17.50
2018-06-28T01:21:33.683Z,17.50
2018-06-28T01:24:01.321Z,17.50
2018-06-28T01:26:28.897Z,17.50
2018-06-28T01:28:56.497Z,17.50
2018-06-28T01:31:24.061Z,17.50
2018-06-28T01:33:51.625Z,17.40
2018-06-28T01:36:19.184Z,17.40
2018-06-28T01:38:47.131Z,17.40
2018-06-28T01:41:14.736Z,17.40
2018-06-28T01:43:46.155Z,17.40
2018-06-28T01:46:15.044Z,17.40
2018-06-28T01:48:42.958Z,17.40
2018-06-28T01:51:10.592Z,17.30
2018-06-28T01:53:38.170Z,17.30
2018-06-28T01:56:05.735Z,17.30
2018-06-28T01:58:33.306Z,17.30
2018-06-28T02:01:01.002Z,17.30
2018-06-28T02:03:28.584Z,17.30
2018-06-28T02:05:56.519Z,17.30
2018-06-28T02:08:24.150Z,17.20
2018-06-28T02:10:51.848Z,17.20
2018-06-28T02:13:19.593Z,17.20
2018-06-28T02:15:47.192Z,17.20
2018-06-28T02:18:14.789Z,17.20
2018-06-28T02:20:42.401Z,17.10
2018-06-28T02:23:10.035Z,17.10
2018-06-28T02:25:38.086Z,17.10
2018-06-28T02:28:05.753Z,17.10
2018-06-28T02:30:33.698Z,17.10
2018-06-28T02:33:01.304Z,17.10
2018-06-28T02:35:29.184Z,17.00
2018-06-28T02:37:57.079Z,17.00
2018-06-28T02:40:26.144Z,17.00
2018-06-28T02:42:53.716Z,17.00
2018-06-28T02:45:21.447Z,17.00
2018-06-28T02:47:49.078Z,17.00
2018-06-28T02:50:16.635Z,17.00
2018-06-28T02:52:44.238Z,17.00
2018-06-28T02:55:11.808Z,17.00
2018-06-28T02:57:39.638Z,16.90
2018-06-28T03:00:07.383Z,16.90
2018-06-28T03:02:34.942Z,16.90
2018-06-28T03:05:02.531Z,16.90
2018-06-28T03:07:30.165Z,16.90
2018-06-28T03:09:57.721Z,16.80
2018-06-28T03:12:25.268Z,16.90
2018-06-28T03:14:52.877Z,16.80
2018-06-28T03:17:21.305Z,16.80
2018-06-28T03:19:48.965Z,16.80
2018-06-28T03:22:16.581Z,16.80
2018-06-28T03:24:44.145Z,16.80
2018-06-28T03:27:11.721Z,16.80
2018-06-28T03:29:39.317Z,16.80
2018-06-28T03:32:06.879Z,16.80
2018-06-28T03:34:34.572Z,16.80
2018-06-28T03:37:02.133Z,16.80
2018-06-28T03:39:29.694Z,16.80
2018-06-28T03:41:57.307Z,16.90
2018-06-28T03:44:24.930Z,16.90
2018-06-28T03:46:53.125Z,16.90
2018-06-28T03:49:20.685Z,16.90
2018-06-28T03:51:48.251Z,16.90
2018-06-28T03:54:15.829Z,17.00
2018-06-28T03:56:43.437Z,17.00
2018-06-28T03:59:11.051Z,17.00
2018-06-28T04:01:38.591Z,17.00
2018-06-28T04:04:06.173Z,17.10
2018-06-28T04:06:33.778Z,17.10
2018-06-28T04:09:01.347Z,17.10
2018-06-28T04:11:28.949Z,17.20
2018-06-28T04:13:56.547Z,17.20
2018-06-28T04:16:24.290Z,17.30
2018-06-28T04:18:51.825Z,17.40
2018-06-28T04:21:19.401Z,17.60
2018-06-28T04:23:47.065Z,17.70
2018-06-28T04:26:14.889Z,17.80
2018-06-28T04:28:42.505Z,17.90
2018-06-28T04:31:10.093Z,18.00
2018-06-28T04:33:37.719Z,18.20
2018-06-28T04:36:05.377Z,18.70
2018-06-28T04:38:33.193Z,19.90
2018-06-28T04:41:00.827Z,21.50
2018-06-28T04:43:28.388Z,22.80
2018-06-28T04:45:55.957Z,23.90
2018-06-28T04:48:23.623Z,25.00
2018-06-28T04:50:51.481Z,26.00
2018-06-28T04:55:46.841Z,27.70
2018-06-28T04:58:14.564Z,28.10
2018-06-28T05:00:42.159Z,28.90
2018-06-28T05:03:09.823Z,29.70
2018-06-28T05:05:38.037Z,30.20
2018-06-28T05:08:05.621Z,30.70
2018-06-28T05:10:33.179Z,31.10
2018-06-28T05:13:00.975Z,31.40
2018-06-28T05:17:57.037Z,30.40
2018-06-28T05:20:24.669Z,30.70
2018-06-28T05:22:52.328Z,31.00
2018-06-28T05:25:20.546Z,31.40
2018-06-28T05:27:48.133Z,31.60
2018-06-28T05:30:15.819Z,31.20
2018-06-28T05:32:43.405Z,30.40
2018-06-28T05:35:11.048Z,29.60
2018-06-28T05:37:38.609Z,29.20
2018-06-28T05:40:06.269Z,28.70
2018-06-28T05:42:33.907Z,28.60
2018-06-28T05:45:01.538Z,28.50
2018-06-28T05:47:29.137Z,28.10
2018-06-28T05:49:56.697Z,27.90
2018-06-28T05:54:51.798Z,27.90
2018-06-28T05:57:19.393Z,28.10
2018-06-28T05:59:46.943Z,28.20
2018-06-28T06:02:14.520Z,28.40
2018-06-28T06:04:42.161Z,28.50
2018-06-28T06:07:09.770Z,28.60
2018-06-28T06:09:37.373Z,28.70
2018-06-28T06:12:05.178Z,28.80
2018-06-28T06:14:32.706Z,28.80
2018-06-28T06:17:00.314Z,28.90
2018-06-28T06:19:27.912Z,29.00
2018-06-28T06:21:55.474Z,29.10
2018-06-28T06:24:23.136Z,29.10
2018-06-28T06:26:50.782Z,28.70
2018-06-28T06:29:18.566Z,28.40
2018-06-28T06:31:46.219Z,28.30
2018-06-28T06:34:13.878Z,28.40
2018-06-28T06:36:41.442Z,28.70
2018-06-28T06:39:10.380Z,29.10
2018-06-28T06:41:37.978Z,29.30
2018-06-28T06:44:06.026Z,29.70
2018-06-28T06:46:34.168Z,30.30
2018-06-28T06:49:01.826Z,30.50
2018-06-28T06:51:29.422Z,30.60
2018-06-28T06:53:57.010Z,30.80
2018-06-28T06:56:24.614Z,31.40
2018-06-28T06:58:52.514Z,32.00
2018-06-28T07:01:20.250Z,32.50
2018-06-28T07:03:47.938Z,32.70
2018-06-28T07:06:15.705Z,32.90
2018-06-28T07:08:43.446Z,33.00
2018-06-28T07:11:11.615Z,33.40
2018-06-28T07:13:39.281Z,33.40
2018-06-28T07:16:07.189Z,33.60
2018-06-28T07:18:34.657Z,33.80
2018-06-28T07:21:02.178Z,34.10
2018-06-28T07:23:29.881Z,34.60
2018-06-28T07:25:57.455Z,34.80
2018-06-28T07:28:25.051Z,34.80
2018-06-28T07:30:52.639Z,35.00
2018-06-28T07:33:20.229Z,35.50
2018-06-28T07:35:47.782Z,36.00
2018-06-28T07:55:57.716Z,39.40
2018-06-28T07:58:25.585Z,40.60
2018-06-28T08:00:53.169Z,41.50
2018-06-28T08:03:20.834Z,42.20
2018-06-28T08:05:48.450Z,42.60
2018-06-28T08:08:16.031Z,42.40
2018-06-28T08:10:43.690Z,42.00
2018-06-28T08:13:11.317Z,41.70
2018-06-28T08:15:38.880Z,42.50
2018-06-28T08:18:06.545Z,43.80
2018-06-28T08:20:34.137Z,44.80
2018-06-28T08:23:01.812Z,45.30
2018-06-28T08:25:29.449Z,45.70
2018-06-28T08:27:57.043Z,46.00
2018-06-28T08:30:24.643Z,46.00
2018-06-28T08:32:52.317Z,45.70
2018-06-28T08:35:19.891Z,45.40
2018-06-28T08:37:47.499Z,45.30
2018-06-28T08:40:15.090Z,44.90
2018-06-28T08:42:42.669Z,44.60
2018-06-28T08:45:10.273Z,44.40
2018-06-28T08:47:37.895Z,44.00
2018-06-28T08:50:05.741Z,43.80
2018-06-28T08:52:33.377Z,43.60
2018-06-28T08:55:00.997Z,43.50
2018-06-28T08:57:28.549Z,42.80
2018-06-28T08:59:56.231Z,42.10
2018-06-28T09:02:23.961Z,40.40
2018-06-28T09:04:51.587Z,38.70
2018-06-28T09:07:19.231Z,37.10
2018-06-28T09:09:46.889Z,35.70
2018-06-28T09:12:14.459Z,34.50
2018-06-28T09:14:42.057Z,33.20
2018-06-28T09:17:09.657Z,32.30
2018-06-28T09:19:37.227Z,31.40
2018-06-28T09:22:04.861Z,30.80
2018-06-28T09:24:32.451Z,30.40
2018-06-28T09:27:00.001Z,30.10
2018-06-28T09:29:27.598Z,29.90
2018-06-28T09:31:55.185Z,29.70
2018-06-28T09:34:22.709Z,29.60
2018-06-28T09:36:50.514Z,29.40
2018-06-28T09:39:18.121Z,29.20
2018-06-28T09:41:45.705Z,29.20
2018-06-28T09:44:13.293Z,29.20
2018-06-28T09:46:41.149Z,29.30
2018-06-28T09:49:08.729Z,29.30
2018-06-28T09:51:36.317Z,29.30
2018-06-28T09:54:04.356Z,29.30
2018-06-28T09:56:31.910Z,29.30
2018-06-28T09:58:59.506Z,29.20
2018-06-28T10:01:27.108Z,29.10
2018-06-28T10:03:54.688Z,28.90
2018-06-28T10:06:22.260Z,28.70
2018-06-28T10:08:49.920Z,28.70
2018-06-28T10:11:17.649Z,28.60
2018-06-28T10:13:45.586Z,28.40
2018-06-28T10:16:13.246Z,28.50
2018-06-28T10:18:41.152Z,28.50
2018-06-28T10:21:09.012Z,28.70
2018-06-28T10:23:36.658Z,28.60
2018-06-28T10:26:04.447Z,28.60
2018-06-28T10:28:32.125Z,28.60
2018-06-28T10:30:59.956Z,28.70
2018-06-28T10:33:27.584Z,28.80
2018-06-28T10:35:55.223Z,28.80
2018-06-28T10:38:22.790Z,28.80
2018-06-28T10:43:17.907Z,28.90
2018-06-28T10:45:45.566Z,28.80
2018-06-28T10:50:41.388Z,28.60
2018-06-28T10:53:09.058Z,28.50
2018-06-28T10:55:36.644Z,28.40
2018-06-28T10:58:04.234Z,28.40
2018-06-28T11:00:31.818Z,28.60
2018-06-28T11:02:59.442Z,28.70
2018-06-28T11:05:27.006Z,28.80
2018-06-28T11:07:54.600Z,29.00
2018-06-28T11:10:22.184Z,29.20
2018-06-28T11:12:49.748Z,29.30
2018-06-28T11:15:17.334Z,29.10
2018-06-28T11:17:44.960Z,28.90
2018-06-28T11:20:12.530Z,28.80
2018-06-28T11:22:40.154Z,28.80
2018-06-28T11:25:07.755Z,28.70
2018-06-28T11:27:35.302Z,28.60
2018-06-28T11:30:03.581Z,28.50
2018-06-28T11:32:31.220Z,28.50
2018-06-28T11:34:58.758Z,28.50
2018-06-28T11:37:26.351Z,28.60
2018-06-28T11:39:53.930Z,28.70
2018-06-28T11:44:49.041Z,28.70
2018-06-28T11:47:16.644Z,28.80
2018-06-28T11:49:44.258Z,28.90
2018-06-28T11:54:39.416Z,29.10
2018-06-28T11:57:07.030Z,29.00
2018-06-28T11:59:34.698Z,28.80
2018-06-28T12:02:02.438Z,28.90
2018-06-28T12:04:30.039Z,28.80
2018-06-28T12:06:57.682Z,28.70
2018-06-28T12:09:25.242Z,28.80
2018-06-28T12:11:52.854Z,28.60
2018-06-28T12:14:20.458Z,28.60
2018-06-28T12:16:48.064Z,28.60
2018-06-28T12:19:15.668Z,28.60
2018-06-28T12:21:43.342Z,28.70
2018-06-28T12:24:10.954Z,28.80
2018-06-28T12:26:38.504Z,29.00
2018-06-28T12:29:06.201Z,29.20
2018-06-28T12:31:33.732Z,29.40
2018-06-28T12:34:01.358Z,29.40
2018-06-28T12:36:29.072Z,29.40
2018-06-28T12:38:56.673Z,29.50
2018-06-28T12:41:24.234Z,29.50
2018-06-28T12:43:51.892Z,29.40
2018-06-28T12:46:24.835Z,29.30
2018-06-28T12:48:52.423Z,29.30
2018-06-28T12:51:30.301Z,29.20
2018-06-28T12:53:57.944Z,29.20
2018-06-28T12:56:29.683Z,29.00
2018-06-28T12:58:59.033Z,28.90
2018-06-28T13:01:27.379Z,28.90
2018-06-28T13:03:55.556Z,28.90
2018-06-28T13:06:23.206Z,28.90
2018-06-28T13:08:52.002Z,28.90
2018-06-28T13:11:19.638Z,28.90
2018-06-28T13:13:47.255Z,28.80
2018-06-28T13:16:15.992Z,28.90
2018-06-28T13:18:44.505Z,29.00
2018-06-28T13:21:12.131Z,29.00
2018-06-28T13:23:39.838Z,28.90
2018-06-28T13:26:08.201Z,28.90
2018-06-28T13:28:35.881Z,29.00
2018-06-28T13:31:03.525Z,29.20
2018-06-28T13:33:31.106Z,29.20
2018-06-28T13:35:58.692Z,29.20
2018-06-28T13:38:26.300Z,29.20
2018-06-28T13:40:54.045Z,29.10
2018-06-28T13:43:21.923Z,29.10
2018-06-28T13:45:49.565Z,29.00
2018-06-28T13:48:17.564Z,28.80
2018-06-28T13:50:45.383Z,28.70
2018-06-28T13:53:13.074Z,28.50
2018-06-28T13:55:40.724Z,28.60
2018-06-28T13:58:08.532Z,28.70
2018-06-28T14:03:03.815Z,28.80
2018-06-28T14:05:31.381Z,28.80
2018-06-28T14:07:58.932Z,28.70
2018-06-28T14:10:26.504Z,28.60
2018-06-28T14:12:54.135Z,28.40
2018-06-28T14:15:21.811Z,28.20
2018-06-28T14:20:17.155Z,28.00
2018-06-28T14:22:44.849Z,27.90
2018-06-28T14:25:12.434Z,27.90
2018-06-28T14:27:40.053Z,27.90
2018-06-28T14:30:09.851Z,27.80
2018-06-28T14:32:37.538Z,27.90
2018-06-28T14:35:05.467Z,28.10
2018-06-28T14:37:33.007Z,28.20
2018-06-28T14:40:00.655Z,28.40
2018-06-28T14:42:28.272Z,28.40
2018-06-28T14:44:55.994Z,28.30
2018-06-28T14:47:23.577Z,28.30
2018-06-28T14:49:51.193Z,28.30
2018-06-28T14:52:18.815Z,28.20
2018-06-28T14:54:46.373Z,28.20
2018-06-28T14:59:41.633Z,28.00
2018-06-28T15:02:09.445Z,28.00
2018-06-28T15:04:37.019Z,27.90
2018-06-28T15:07:04.870Z,28.10
2018-06-28T15:09:32.483Z,28.20
2018-06-28T15:12:00.078Z,28.40
2018-06-28T15:14:27.660Z,28.50
2018-06-28T15:16:55.271Z,28.50
2018-06-28T15:19:22.859Z,28.40
2018-06-28T15:21:50.518Z,28.20
2018-06-28T15:24:18.113Z,28.10
2018-06-28T15:26:45.671Z,28.00
2018-06-28T15:29:13.247Z,27.90
2018-06-28T15:31:40.846Z,27.80
2018-06-28T15:34:08.458Z,27.70
2018-06-28T15:36:36.035Z,27.60
2018-06-28T15:39:06.950Z,27.60
2018-06-28T15:41:34.816Z,27.60
2018-06-28T15:44:02.380Z,27.70
2018-06-28T15:46:30.060Z,27.80
2018-06-28T15:48:57.648Z,27.80
2018-06-28T15:51:25.299Z,27.90
2018-06-28T15:53:52.886Z,27.90
2018-06-28T15:56:21.142Z,27.90
2018-06-28T15:58:48.804Z,27.90
2018-06-28T16:01:16.503Z,27.90
2018-06-28T16:03:44.114Z,27.80
2018-06-28T16:06:11.710Z,27.80
2018-06-28T16:08:39.744Z,27.70
2018-06-28T16:11:07.499Z,27.70
2018-06-28T16:13:35.082Z,27.60
2018-06-28T16:16:02.694Z,27.60
2018-06-28T16:18:30.298Z,27.60
2018-06-28T16:20:57.864Z,27.50
2018-06-28T16:23:25.482Z,27.50
2018-06-28T16:25:53.404Z,27.50
2018-06-28T16:28:21.086Z,27.50
2018-06-28T16:30:48.808Z,27.50
2018-06-28T16:33:16.678Z,27.50
2018-06-28T16:35:44.306Z,27.50
2018-06-28T16:38:11.899Z,27.60
2018-06-28T16:40:39.654Z,27.70
2018-06-28T16:43:07.261Z,27.70
2018-06-28T16:45:34.838Z,27.70
2018-06-28T16:48:02.444Z,27.70
2018-06-28T16:50:30.053Z,27.70
2018-06-28T16:52:57.816Z,27.70
2018-06-28T16:55:25.365Z,27.60
2018-06-28T16:57:53.087Z,27.60
2018-06-28T17:00:20.619Z,27.70
2018-06-28T17:02:48.333Z,27.70
2018-06-28T17:05:15.925Z,27.70
2018-06-28T17:07:43.603Z,27.70
2018-06-28T17:10:11.347Z,27.60
2018-06-28T17:12:38.993Z,27.60
2018-06-28T17:15:06.639Z,27.60
2018-06-28T17:17:34.567Z,27.60
2018-06-28T17:20:02.329Z,27.60
2018-06-28T17:27:25.761Z,27.70
2018-06-28T17:29:53.473Z,27.70
2018-06-28T17:32:21.121Z,27.70
2018-06-28T17:34:48.729Z,27.70
2018-06-28T17:37:16.331Z,27.70
2018-06-28T17:39:44.421Z,27.80
2018-06-28T17:42:12.432Z,27.80
2018-06-28T17:44:40.048Z,27.80
2018-06-28T17:47:07.846Z,27.80
2018-06-28T17:52:03.255Z,27.70
2018-06-28T17:54:30.931Z,27.60
2018-06-28T17:56:58.515Z,27.50
2018-06-28T17:59:26.097Z,27.40
2018-06-28T18:01:53.753Z,27.30
2018-06-28T18:04:21.453Z,27.10
2018-06-28T18:06:49.047Z,26.90
2018-06-28T18:09:16.723Z,26.80
2018-06-28T18:11:44.333Z,26.70
2018-06-28T18:14:11.903Z,26.70
2018-06-28T18:16:39.489Z,26.60
2018-06-28T18:19:07.117Z,26.50
2018-06-28T18:21:34.746Z,26.40
2018-06-28T18:24:02.397Z,26.40
2018-06-28T18:26:30.131Z,26.30
2018-06-28T18:28:57.761Z,26.30
2018-06-28T18:31:25.583Z,26.20
2018-06-28T18:33:53.441Z,26.20
2018-06-28T18:36:21.115Z,26.20
2018-06-28T18:38:48.777Z,26.20
2018-06-28T18:41:16.490Z,26.20
2018-06-28T18:43:44.081Z,26.10
2018-06-28T18:46:11.751Z,26.10
2018-06-28T18:48:39.473Z,26.00
2018-06-28T18:51:07.258Z,25.90
2018-06-28T18:53:35.088Z,25.90
2018-06-28T18:56:08.807Z,25.80
2018-06-28T18:58:36.694Z,25.80
2018-06-28T19:01:04.362Z,25.70
2018-06-28T19:03:32.174Z,25.70
2018-06-28T19:05:59.854Z,25.60
2018-06-28T19:08:27.483Z,25.60
2018-06-28T19:10:56.469Z,25.60
2018-06-28T19:13:25.514Z,25.50
2018-06-28T19:15:59.132Z,25.50
2018-06-28T19:18:27.250Z,25.50
2018-06-28T19:21:00.508Z,25.40
2018-06-28T19:23:33.852Z,25.40
2018-06-28T19:26:01.539Z,25.40
2018-06-28T19:28:29.265Z,25.40
2018-06-28T19:31:02.735Z,25.40
2018-06-28T19:33:30.306Z,25.30
2018-06-28T19:35:57.908Z,25.30
2018-06-28T19:38:30.073Z,25.30
2018-06-28T19:41:03.539Z,25.20
2018-06-28T19:43:31.260Z,25.20
2018-06-28T19:45:58.907Z,25.20
2018-06-28T19:48:26.567Z,25.10
2018-06-28T19:50:59.753Z,25.10
2018-06-28T19:53:27.460Z,25.00
2018-06-28T19:58:22.539Z,25.00
2018-06-28T20:00:55.900Z,25.00
2018-06-28T20:03:29.164Z,25.00
2018-06-28T20:05:56.849Z,25.00
2018-06-28T20:08:24.455Z,25.00
2018-06-28T20:10:52.093Z,25.00
2018-06-28T20:13:25.386Z,25.00
2018-06-28T20:15:58.801Z,25.00
2018-06-28T20:18:32.137Z,25.00
2018-06-28T20:21:00.953Z,25.00
2018-06-28T20:23:28.601Z,25.00
2018-06-28T20:25:56.230Z,25.00
2018-06-28T20:28:29.411Z,25.00
2018-06-28T20:31:02.751Z,25.10
2018-06-28T20:33:35.904Z,25.00
2018-06-28T20:36:03.777Z,25.00
2018-06-28T20:38:31.496Z,25.00
2018-06-28T20:40:59.798Z,24.90
2018-06-28T20:43:27.406Z,24.90
2018-06-28T20:45:55.288Z,24.90
2018-06-28T20:48:22.942Z,24.90
2018-06-28T20:50:50.741Z,25.00
2018-06-28T20:53:19.178Z,25.00
2018-06-28T20:55:46.805Z,25.00
2018-06-28T21:00:41.971Z,24.70
2018-06-28T21:03:09.745Z,24.70
2018-06-28T21:05:37.322Z,24.50
2018-06-28T21:08:05.025Z,24.40
2018-06-28T21:10:32.705Z,24.40
2018-06-28T21:13:00.465Z,24.30
2018-06-28T21:17:55.791Z,24.20
2018-06-28T21:20:23.371Z,24.10
2018-06-28T21:22:50.966Z,24.00
2018-06-28T21:25:18.565Z,23.90
2018-06-28T21:30:13.665Z,23.70
2018-06-28T21:32:41.331Z,23.70
2018-06-28T21:35:08.964Z,23.70
2018-06-28T21:37:36.599Z,23.60
2018-06-28T21:40:04.593Z,23.60
2018-06-28T21:42:32.193Z,23.50
2018-06-28T21:44:59.829Z,23.50
2018-06-28T21:47:27.429Z,23.50
2018-06-28T21:49:55.059Z,23.40
2018-06-28T21:52:22.649Z,23.40
2018-06-28T21:54:50.299Z,23.30
2018-06-28T21:59:45.603Z,23.20
2018-06-28T22:02:13.294Z,23.20
2018-06-28T22:04:40.857Z,23.10
2018-06-28T22:07:08.495Z,23.10
2018-06-28T22:09:36.096Z,23.00
2018-06-28T22:12:03.737Z,23.00
2018-06-28T22:14:31.389Z,23.00
2018-06-28T22:16:59.043Z,23.00
2018-06-28T22:19:26.615Z,22.90
2018-06-28T22:21:54.192Z,22.90
2018-06-28T22:24:21.818Z,22.90
2018-06-28T22:26:49.433Z,22.90
2018-06-28T22:29:17.028Z,22.90
2018-06-28T22:31:44.602Z,22.90
2018-06-28T22:34:12.328Z,22.80
2018-06-28T22:36:39.943Z,22.80
2018-06-28T22:39:11.430Z,22.80
2018-06-28T22:41:39.035Z,22.80
2018-06-28T22:44:06.753Z,22.80
2018-06-28T22:46:34.842Z,22.70
2018-06-28T22:49:02.542Z,22.70
2018-06-28T22:51:30.123Z,22.70
2018-06-28T22:53:57.753Z,22.70
2018-06-28T22:56:25.349Z,22.70
2018-06-28T22:58:52.995Z,22.70
2018-06-28T23:01:20.790Z,22.70
2018-06-28T23:03:48.355Z,22.70
2018-06-28T23:06:15.970Z,22.70
2018-06-28T23:08:43.800Z,22.70
2018-06-28T23:11:11.382Z,22.70
2018-06-28T23:13:39.000Z,22.70
2018-06-28T23:16:06.867Z,22.70
2018-06-28T23:18:34.441Z,22.70
2018-06-28T23:21:02.296Z,22.70
2018-06-28T23:23:29.896Z,22.60
2018-06-28T23:25:57.455Z,22.60
2018-06-28T23:28:25.047Z,22.60
2018-06-28T23:30:52.767Z,22.50
2018-06-28T23:33:20.327Z,22.60
2018-06-28T23:35:47.936Z,22.60
2018-06-28T23:38:15.639Z,22.60
2018-06-28T23:40:43.221Z,22.60
2018-06-28T23:43:10.771Z,22.60
2018-06-28T23:45:38.399Z,22.60
2018-06-28T23:48:06.031Z,22.60
2018-06-28T23:50:33.573Z,22.60
2018-06-28T23:53:01.147Z,22.60
2018-06-28T23:55:28.853Z,22.60
2018-06-28T23:57:56.559Z,22.50
